Time;durP1;ratioP1;P1;durP2;ratioP2;P2;SDS_P1;SDS_P2;PMS_P1;PMS_P2;Temp;Humidity;BMP_temperature;BMP_pressure;BME280_temperature;BME280_humidity;BME280_pressure;Samples;Min_cycle;Max_cycle;Signal;HPM_P1;HPM_P2
2023/10/30 00:05:00;;;;;;;1999.90;999.90;;;;;;;15.67;75.54;99711.06;10359843;22;20050;-62
2023/10/30 00:10:03;;;;;;;1999.90;999.90;;;;;;;16.45;74.35;99705.28;10369799;28;20504;-61
2023/10/30 00:15:06;;;;;;;1999.90;999.90;;;;;;;16.35;75.54;99713.28;10370220;28;20050;-61
2023/10/30 00:20:08;;;;;;;1999.90;999.90;;;;;;;16.29;75.23;99720.00;10368769;28;20581;-61
2023/10/30 00:25:11;;;;;;;1999.90;999.90;;;;;;;15.97;75.17;99726.63;10369216;28;20056;-61
2023/10/30 00:30:13;;;;;;;1999.90;999.90;;;;;;;16.17;75.80;99739.66;10351694;28;20470;-61
2023/10/30 00:35:15;;;;;;;1999.90;999.90;;;;;;;15.91;74.65;99742.22;10368986;28;20452;-61
2023/10/30 00:40:19;;;;;;;1999.90;999.90;;;;;;;16.28;74.55;99750.03;10369514;28;20053;-62
2023/10/30 00:45:21;;;;;;;1999.90;999.90;;;;;;;16.25;74.86;99760.88;10352180;28;20049;-61
2023/10/30 00:50:24;;;;;;;1999.90;999.90;;;;;;;15.92;75.55;99757.91;10369167;28;20065;-61
2023/10/30 00:55:26;;;;;;;1999.90;999.90;;;;;;;16.37;74.88;99758.84;10351712;28;20048;-61
2023/10/30 01:00:28;;;;;;;1999.90;999.90;;;;;;;16.37;75.06;99773.88;10368768;28;20065;-61
2023/10/30 01:05:31;;;;;;;1999.90;999.90;;;;;;;15.93;75.19;99779.84;10368505;28;20054;-62
2023/10/30 01:10:34;;;;;;;1999.90;999.90;;;;;;;15.72;76.21;99774.81;10368573;28;20060;-61
2023/10/30 01:15:37;;;;;;;1999.90;999.90;;;;;;;16.10;74.29;99788.78;10334451;28;20479;-61
2023/10/30 01:20:39;;;;;;;1999.90;999.90;;;;;;;16.22;74.03;99786.75;10368864;28;20057;-61
2023/10/30 01:25:42;;;;;;;1999.90;999.90;;;;;;;15.92;78.79;99794.03;10368320;28;20074;-61
2023/10/30 01:30:45;;;;;;;1999.90;999.90;;;;;;;15.90;78.42;99803.91;10352569;28;20545;-61
2023/10/30 01:35:47;;;;;;;1999.90;999.90;;;;;;;16.15;77.09;99799.72;10375077;28;20514;-62
2023/10/30 01:40:50;;;;;;;1999.90;999.90;;;;;;;15.79;80.24;99803.13;10375134;28;20054;-61
2023/10/30 01:45:53;;;;;;;1999.90;999.90;;;;;;;16.39;77.63;99812.38;10374218;28;20500;-61
2023/10/30 01:50:56;;;;;;;1999.90;999.90;;;;;;;16.01;77.17;99811.63;10374832;28;20066;-61
2023/10/30 01:56:00;;;;;;;1999.90;999.90;;;;;;;16.16;75.21;99804.88;10357273;28;20056;-61
2023/10/30 02:01:03;;;;;;;1999.90;999.90;;;;;;;16.49;76.65;99807.00;10374513;28;20050;-61
2023/10/30 02:06:05;;;;;;;1999.90;999.90;;;;;;;16.24;74.30;99801.50;10373492;28;20050;-61
2023/10/30 02:11:10;;;;;;;1999.90;999.90;;;;;;;16.24;77.10;99804.13;10357247;28;20128;-61
2023/10/30 02:16:12;;;;;;;1999.90;999.90;;;;;;;15.85;76.89;99806.97;10373374;28;20050;-62
2023/10/30 02:21:17;;;;;;;1999.90;999.90;;;;;;;16.04;78.14;99811.34;10373213;28;20054;-61
2023/10/30 02:26:19;;;;;;;1999.90;999.90;;;;;;;16.33;76.62;99805.06;10356520;28;20050;-62
2023/10/30 02:31:23;;;;;;;1999.90;999.90;;;;;;;16.45;75.93;99800.38;10372897;28;20303;-61
2023/10/30 02:36:26;;;;;;;1999.90;999.90;;;;;;;16.43;75.79;99805.81;10373378;28;20046;-61
2023/10/30 02:41:31;;;;;;;1999.90;999.90;;;;;;;16.51;74.66;99807.72;10373227;28;20081;-61
2023/10/30 02:46:33;;;;;;;1999.90;999.90;;;;;;;16.63;73.53;99822.34;10372298;28;20402;-61
2023/10/30 02:51:36;;;;;;;1999.90;999.90;;;;;;;16.45;75.16;99818.88;10372892;28;20099;-61
2023/10/30 02:56:38;;;;;;;1999.90;999.90;;;;;;;15.88;77.21;99806.69;10372596;28;20554;-61
2023/10/30 03:01:41;;;;;;;1999.90;999.90;;;;;;;16.13;77.60;99806.97;10372572;28;20045;-61
2023/10/30 03:06:43;;;;;;;1999.90;999.90;;;;;;;16.18;76.44;99799.44;10371728;28;20072;-61
2023/10/30 03:11:46;;;;;;;1999.90;999.90;;;;;;;16.62;74.34;99807.47;10372716;28;20050;-61
2023/10/30 03:16:48;;;;;;;1999.90;999.90;;;;;;;16.39;75.90;99811.53;10371461;28;20111;-61
2023/10/30 03:21:51;;;;;;;1999.90;999.90;;;;;;;16.29;76.56;99811.59;10371179;28;20061;-61
2023/10/30 03:26:53;;;;;;;1999.90;999.90;;;;;;;16.22;77.47;99815.81;10371785;28;20050;-61
2023/10/30 03:31:56;;;;;;;1999.90;999.90;;;;;;;16.37;75.99;99816.13;10371638;28;20054;-61
2023/10/30 03:36:58;;;;;;;1999.90;999.90;;;;;;;15.42;78.49;99818.94;10371457;28;20060;-62
2023/10/30 03:42:01;;;;;;;1999.90;999.90;;;;;;;15.88;77.30;99822.53;10353796;28;20419;-61
2023/10/30 03:47:03;;;;;;;1999.90;999.90;;;;;;;15.76;77.99;99832.44;10371180;28;20072;-61
2023/10/30 03:52:05;;;;;;;1999.90;999.90;;;;;;;16.40;77.18;99829.88;10370098;28;20060;-61
2023/10/30 03:57:08;;;;;;;1999.90;999.90;;;;;;;15.98;76.48;99825.94;10370196;28;20060;-61
2023/10/30 04:02:11;;;;;;;1999.90;999.90;;;;;;;16.06;76.42;99819.94;10369973;28;20099;-61
2023/10/30 04:07:13;;;;;;;1999.90;999.90;;;;;;;15.50;80.40;99828.75;10370243;28;20062;-61
2023/10/30 04:12:18;;;;;;;1999.90;999.90;;;;;;;16.26;76.73;99823.31;10370433;28;20125;-61
2023/10/30 04:17:21;;;;;;;1999.90;999.90;;;;;;;15.85;78.12;99829.91;10369630;28;20046;-61
2023/10/30 04:22:23;;;;;;;1999.90;999.90;;;;;;;16.23;77.36;99830.69;10353182;28;20046;-61
2023/10/30 04:27:26;;;;;;;1999.90;999.90;;;;;;;15.53;80.26;99834.59;10369943;28;20049;-61
2023/10/30 04:32:28;;;;;;;1999.90;999.90;;;;;;;16.05;77.92;99820.91;10369891;28;20049;-61
2023/10/30 04:37:30;;;;;;;1999.90;999.90;;;;;;;15.82;79.70;99812.56;10368963;28;20089;-61
2023/10/30 04:42:33;;;;;;;1999.90;999.90;;;;;;;15.59;78.68;99810.25;10369334;28;20046;-61
2023/10/30 04:47:36;;;;;;;1999.90;999.90;;;;;;;15.95;79.49;99815.69;10369806;28;20110;-61
2023/10/30 04:52:38;;;;;;;1999.90;999.90;;;;;;;15.27;79.35;99826.47;10369180;28;20111;-61
2023/10/30 04:57:40;;;;;;;1999.90;999.90;;;;;;;15.46;80.95;99822.09;10368348;28;20490;-61
2023/10/30 05:02:46;;;;;;;1999.90;999.90;;;;;;;16.04;77.42;99829.81;10368810;28;20077;-62
2023/10/30 05:07:49;;;;;;;1999.90;999.90;;;;;;;16.08;76.68;99831.19;10368318;28;20066;-61
2023/10/30 05:12:52;;;;;;;1999.90;999.90;;;;;;;15.98;78.41;99833.88;10369030;28;20050;-61
2023/10/30 05:17:54;;;;;;;1999.90;999.90;;;;;;;14.75;82.75;99825.97;10368453;28;20053;-62
2023/10/30 05:22:57;;;;;;;1999.90;999.90;;;;;;;15.77;79.30;99820.91;10368299;28;20147;-61
2023/10/30 05:27:59;;;;;;;1999.90;999.90;;;;;;;16.06;79.76;99822.56;10368208;28;20057;-61
2023/10/30 05:33:02;;;;;;;1999.90;999.90;;;;;;;16.03;77.21;99814.13;10367502;28;20487;-61
2023/10/30 05:38:05;;;;;;;1999.90;999.90;;;;;;;15.56;79.82;99820.25;10367921;28;20103;-61
2023/10/30 05:43:07;;;;;;;1999.90;999.90;;;;;;;15.96;78.43;99813.88;10367380;28;20073;-61
2023/10/30 05:48:10;;;;;;;1999.90;999.90;;;;;;;15.70;78.45;99824.22;10367177;28;20509;-61
2023/10/30 05:53:12;;;;;;;1999.90;999.90;;;;;;;15.60;79.61;99824.25;10367079;28;20079;-61
2023/10/30 05:58:14;;;;;;;1999.90;999.90;;;;;;;15.52;79.87;99818.91;10367553;28;20049;-61
2023/10/30 06:03:17;;;;;;;1999.90;999.90;;;;;;;15.17;80.07;99833.56;10367337;28;20042;-61
2023/10/30 06:08:23;;;;;;;1999.90;999.90;;;;;;;15.00;81.45;99830.66;10367053;28;20060;-61
2023/10/30 06:13:26;;;;;;;1999.90;999.90;;;;;;;15.88;78.46;99827.81;10367170;28;20077;-61
2023/10/30 06:18:28;;;;;;;1999.90;999.90;;;;;;;15.69;77.62;99839.25;10371024;28;20479;-61
2023/10/30 06:23:30;;;;;;;1999.90;999.90;;;;;;;15.63;78.82;99841.63;10373592;28;20046;-66
2023/10/30 06:28:33;;;;;;;1999.90;999.90;;;;;;;15.46;79.22;99854.59;10374293;28;20371;-66
2023/10/30 06:33:35;;;;;;;1999.90;999.90;;;;;;;14.82;82.44;99862.13;10373754;28;20149;-66
2023/10/30 06:38:38;;;;;;;1999.90;999.90;;;;;;;15.45;77.63;99850.31;10372780;28;20430;-66
2023/10/30 06:43:40;;;;;;;1999.90;999.90;;;;;;;15.42;79.52;99858.50;10355803;28;20052;-66
2023/10/30 06:48:42;;;;;;;1999.90;999.90;;;;;;;15.37;80.54;99873.91;10373088;28;20053;-66
2023/10/30 06:53:45;;;;;;;1999.90;999.90;;;;;;;15.60;79.67;99884.94;10355699;28;20494;-66
2023/10/30 06:58:47;;;;;;;1999.90;999.90;;;;;;;15.77;78.58;99900.09;10372240;28;20410;-66
2023/10/30 07:03:50;;;;;;;1999.90;999.90;;;;;;;15.28;80.92;99898.47;10372417;28;20081;-66
2023/10/30 07:08:52;;;;;;;1999.90;999.90;;;;;;;15.82;79.96;99902.31;10372152;28;20054;-66
2023/10/30 07:13:54;;;;;;;1999.90;999.90;;;;;;;15.75;79.16;99902.03;10371855;28;20402;-66
2023/10/30 07:18:57;;;;;;;1999.90;999.90;;;;;;;16.02;79.78;99913.63;10372000;28;20411;-66
2023/10/30 07:24:00;;;;;;;1999.90;999.90;;;;;;;16.07;78.13;99902.59;10371947;28;20054;-66
2023/10/30 07:29:02;;;;;;;1999.90;999.90;;;;;;;15.89;78.31;99910.47;10371119;28;20402;-66
2023/10/30 07:34:04;;;;;;;1999.90;999.90;;;;;;;16.44;77.17;99905.22;10371651;28;20042;-66
2023/10/30 07:39:10;;;;;;;1999.90;999.90;;;;;;;16.20;75.74;99899.66;10371472;28;20058;-66
2023/10/30 07:44:13;;;;;;;1999.90;999.90;;;;;;;16.58;77.75;99913.63;10371849;28;20128;-66
2023/10/30 07:49:15;;;;;;;1999.90;999.90;;;;;;;16.32;76.95;99911.66;10371147;28;20056;-66
2023/10/30 07:54:18;;;;;;;1999.90;999.90;;;;;;;16.92;76.64;99916.47;10370628;28;20045;-66
2023/10/30 07:59:20;;;;;;;1999.90;999.90;;;;;;;16.88;74.98;99929.16;10370869;28;20058;-66
2023/10/30 08:04:23;;;;;;;1999.90;999.90;;;;;;;17.50;75.81;99938.13;10353260;28;20056;-66
2023/10/30 08:09:25;;;;;;;1999.90;999.90;;;;;;;17.68;73.96;99938.09;10370312;28;20062;-66
2023/10/30 08:14:28;;;;;;;1999.90;999.90;;;;;;;17.24;74.31;99949.50;10370462;28;20042;-66
2023/10/30 08:19:31;;;;;;;1999.90;999.90;;;;;;;17.57;73.71;99949.78;10369681;28;20136;-66
2023/10/30 08:24:33;;;;;;;1999.90;999.90;;;;;;;18.62;71.26;99937.25;10370232;28;20053;-67
2023/10/30 08:29:35;;;;;;;1999.90;999.90;;;;;;;18.87;73.13;99926.75;10370017;28;20049;-67
2023/10/30 08:34:38;;;;;;;1999.90;999.90;;;;;;;19.16;71.58;99930.75;10369813;28;20070;-66
2023/10/30 08:39:40;;;;;;;1999.90;999.90;;;;;;;18.62;69.50;99920.53;10368394;28;20068;-66
2023/10/30 08:44:42;;;;;;;1999.90;999.90;;;;;;;18.50;69.78;99926.13;10369437;28;20042;-66
2023/10/30 08:49:45;;;;;;;1999.90;999.90;;;;;;;17.78;72.55;99944.13;10369335;28;20056;-66
2023/10/30 08:54:47;;;;;;;1999.90;999.90;;;;;;;17.60;73.61;99934.41;10351844;28;20050;-66
2023/10/30 08:59:50;;;;;;;1999.90;999.90;;;;;;;17.56;72.27;99938.34;10351741;28;20050;-66
2023/10/30 09:04:52;;;;;;;1999.90;999.90;;;;;;;18.24;72.92;99933.31;10368173;28;20482;-66
2023/10/30 09:09:55;;;;;;;1999.90;999.90;;;;;;;18.15;72.80;99938.56;10368845;28;20504;-66
2023/10/30 09:14:59;;;;;;;1999.90;999.90;;;;;;;18.03;71.56;99939.84;10368246;28;20262;-66
2023/10/30 09:20:01;;;;;;;1999.90;999.90;;;;;;;18.23;71.71;99943.09;10368521;28;20137;-66
2023/10/30 09:25:04;;;;;;;1999.90;999.90;;;;;;;18.13;71.73;99937.06;10368344;28;20081;-66
2023/10/30 09:30:06;;;;;;;1999.90;999.90;;;;;;;18.27;73.40;99944.41;10368282;28;20050;-66
2023/10/30 09:35:09;;;;;;;1999.90;999.90;;;;;;;18.29;71.32;99939.81;10367531;28;20475;-67
2023/10/30 09:40:12;;;;;;;1999.90;999.90;;;;;;;18.54;70.91;99953.97;10350744;28;20056;-66
2023/10/30 09:45:15;;;;;;;1999.90;999.90;;;;;;;18.63;71.88;99936.28;10367703;28;20478;-67
2023/10/30 09:50:18;;;;;;;1999.90;999.90;;;;;;;17.97;72.35;99930.72;10367403;28;20103;-66
2023/10/30 09:55:23;;;;;;;1999.90;999.90;;;;;;;18.61;70.87;99918.84;10357030;28;20512;-66
2023/10/30 10:00:25;;;;;;;1999.90;999.90;;;;;;;17.95;72.24;99927.38;10374869;28;20152;-66
2023/10/30 10:05:28;;;;;;;1999.90;999.90;;;;;;;17.82;72.63;99917.19;10374263;28;20054;-66
2023/10/30 10:10:54;;;;;;;1999.90;999.90;;;;;;;19.14;69.54;99915.00;10373789;28;20541;-66
2023/10/30 10:15:57;;;;;;;1999.90;999.90;;;;;;;18.94;70.01;99906.53;10374212;28;20077;-66
2023/10/30 10:21:08;;;;;;;1999.90;999.90;;;;;;;18.34;72.80;99904.84;10374121;28;20053;-66
2023/10/30 10:26:14;;;;;;;1999.90;999.90;;;;;;;18.39;71.03;99902.56;10373198;28;20379;-66
2023/10/30 10:31:17;;;;;;;1999.90;999.90;;;;;;;18.55;72.38;99889.34;10373723;28;20057;-66
2023/10/30 10:36:20;;;;;;;1999.90;999.90;;;;;;;19.15;70.18;99891.94;10373115;28;20397;-66
2023/10/30 10:41:24;;;;;;;1999.90;999.90;;;;;;;18.55;70.39;99884.06;10372746;28;20129;-66
2023/10/30 10:46:26;;;;;;;1999.90;999.90;;;;;;;19.18;69.51;99879.19;10355784;28;20046;-66
2023/10/30 10:51:35;;;;;;;1999.90;999.90;;;;;;;19.39;70.27;99885.81;10372409;28;20123;-66
2023/10/30 10:56:38;;;;;;;1999.90;999.90;;;;;;;18.93;71.50;99881.03;10372294;28;20487;-66
2023/10/30 11:01:42;;;;;;;1999.90;999.90;;;;;;;18.86;71.48;99869.38;10354346;28;20413;-66
2023/10/30 11:06:50;;;;;;;1999.90;999.90;;;;;;;19.17;69.79;99872.22;10372277;28;20058;-66
2023/10/30 11:12:02;;;;;;;1999.90;999.90;;;;;;;19.73;68.99;99863.50;10355027;28;20053;-67
2023/10/30 11:17:05;;;;;;;1999.90;999.90;;;;;;;19.61;68.46;99847.94;10372305;28;20046;-67
2023/10/30 11:22:08;;;;;;;1999.90;999.90;;;;;;;18.92;68.93;99864.25;10354846;28;20056;-67
2023/10/30 11:27:25;;;;;;;1999.90;999.90;;;;;;;18.34;72.99;99841.25;10371241;28;20073;-67
2023/10/30 11:32:34;;;;;;;1999.90;999.90;;;;;;;19.67;69.34;99844.59;10371948;28;20083;-67
2023/10/30 11:37:37;;;;;;;1999.90;999.90;;;;;;;18.77;71.97;99835.88;10371767;28;20046;-67
2023/10/30 11:42:40;;;;;;;1999.90;999.90;;;;;;;19.11;72.27;99828.63;10370835;28;20057;-67
2023/10/30 11:47:45;;;;;;;1999.90;999.90;;;;;;;19.84;70.90;99823.34;10353871;28;20054;-67
2023/10/30 11:52:50;;;;;;;1999.90;999.90;;;;;;;19.38;68.39;99818.63;10370523;28;20490;-66
2023/10/30 11:57:53;;;;;;;1999.90;999.90;;;;;;;20.29;67.02;99810.31;10371531;28;20053;-67
2023/10/30 12:02:55;;;;;;;1999.90;999.90;;;;;;;20.23;66.14;99803.88;10336906;28;20073;-67
2023/10/30 12:07:58;;;;;;;1999.90;999.90;;;;;;;19.52;66.97;99805.66;10352524;28;20054;-66
2023/10/30 12:13:01;;;;;;;1999.90;999.90;;;;;;;19.06;70.04;99799.13;10369794;28;20107;-66
2023/10/30 12:18:04;;;;;;;1999.90;999.90;;;;;;;19.49;69.50;99790.91;10370129;28;20405;-66
2023/10/30 12:23:09;;;;;;;1999.90;999.90;;;;;;;19.07;69.61;99790.16;10493260;23;20425;-65
2023/10/30 12:28:11;;;;;;;1999.90;999.90;;;;;;;19.70;67.08;99769.06;10540767;28;20052;-65
2023/10/30 12:33:21;;;;;;;1999.90;999.90;;;;;;;19.35;69.25;99763.25;10541127;28;20052;-65
2023/10/30 12:38:24;;;;;;;1999.90;999.90;;;;;;;19.72;67.32;99752.97;10541016;28;20071;-66
2023/10/30 12:43:26;;;;;;;1999.90;999.90;;;;;;;19.74;69.87;99743.03;10540710;28;20048;-66
2023/10/30 12:48:28;;;;;;;1999.90;999.90;;;;;;;19.56;69.42;99741.44;10540702;28;20043;-66
2023/10/30 12:53:31;;;;;;;1999.90;999.90;;;;;;;19.29;69.11;99742.69;10539898;28;20044;-66
2023/10/30 12:58:33;;;;;;;1999.90;999.90;;;;;;;19.07;69.09;99729.13;10506047;28;20059;-66
2023/10/30 13:03:36;;;;;;;1999.90;999.90;;;;;;;19.64;69.79;99720.16;10540174;28;20055;-66
2023/10/30 13:08:38;;;;;;;1999.90;999.90;;;;;;;19.23;69.28;99716.81;10540153;28;20052;-66
2023/10/30 13:13:41;;;;;;;1999.90;999.90;;;;;;;20.04;67.49;99698.91;10539573;28;20040;-66
2023/10/30 13:18:44;;;;;;;1999.90;999.90;;;;;;;19.07;68.05;99685.88;10539929;28;20097;-66
2023/10/30 13:23:47;;;;;;;1999.90;999.90;;;;;;;19.46;67.91;99674.44;10539101;28;20139;-66
2023/10/30 13:28:49;;;;;;;1999.90;999.90;;;;;;;19.48;68.02;99673.28;10547200;28;20044;-66
2023/10/30 13:33:52;;;;;;;1999.90;999.90;;;;;;;19.42;67.95;99657.22;10513120;28;20070;-66
2023/10/30 13:38:54;;;;;;;1999.90;999.90;;;;;;;19.62;67.03;99663.75;10547309;28;20546;-66
2023/10/30 13:43:56;;;;;;;1999.90;999.90;;;;;;;19.80;67.86;99647.59;10530170;28;20040;-66
2023/10/30 13:48:59;;;;;;;1999.90;999.90;;;;;;;20.03;66.56;99644.09;10529632;28;20048;-66
2023/10/30 13:54:01;;;;;;;1999.90;999.90;;;;;;;19.79;67.80;99637.13;10547431;28;20048;-66
2023/10/30 13:59:04;;;;;;;1999.90;999.90;;;;;;;19.48;68.55;99640.59;10529199;28;20131;-66
2023/10/30 14:04:06;;;;;;;1999.90;999.90;;;;;;;19.02;69.31;99633.34;10546969;28;20050;-66
2023/10/30 14:09:09;;;;;;;1999.90;999.90;;;;;;;19.61;69.63;99624.09;10546154;28;20416;-66
2023/10/30 14:14:11;;;;;;;1999.90;999.90;;;;;;;19.76;69.16;99634.81;10546674;28;20297;-66
2023/10/30 14:19:14;;;;;;;1999.90;999.90;;;;;;;19.90;68.07;99625.25;10528494;28;20048;-66
2023/10/30 14:24:16;;;;;;;1999.90;999.90;;;;;;;19.66;70.08;99624.41;10545519;28;20052;-66
2023/10/30 14:29:18;;;;;;;1999.90;999.90;;;;;;;19.62;70.31;99623.13;10527415;28;20457;-66
2023/10/30 14:34:21;;;;;;;1999.90;999.90;;;;;;;19.77;68.55;99618.72;10545952;28;20070;-66
2023/10/30 14:39:23;;;;;;;1999.90;999.90;;;;;;;19.57;69.71;99612.16;10526814;28;20071;-66
2023/10/30 14:44:25;;;;;;;1999.90;999.90;;;;;;;19.49;69.28;99613.88;10544742;28;20397;-67
2023/10/30 14:49:28;;;;;;;1999.90;999.90;;;;;;;19.79;69.71;99606.09;10545258;28;20056;-66
2023/10/30 14:54:30;;;;;;;1999.90;999.90;;;;;;;19.60;71.17;99607.34;10545080;28;20047;-66
2023/10/30 14:59:33;;;;;;;1999.90;999.90;;;;;;;19.57;71.82;99599.75;10544145;28;20541;-66
2023/10/30 15:04:38;;;;;;;1999.90;999.90;;;;;;;19.51;71.76;99596.97;10526171;28;20134;-66
2023/10/30 15:09:41;;;;;;;1999.90;999.90;;;;;;;19.48;71.83;99596.31;10544627;28;20058;-66
2023/10/30 15:14:43;;;;;;;1999.90;999.90;;;;;;;19.03;75.13;99587.25;10544722;28;20075;-66
2023/10/30 15:19:46;;;;;;;1999.90;999.90;;;;;;;17.79;78.14;99583.09;10543712;28;20484;-65
2023/10/30 15:24:49;;;;;;;1999.90;999.90;;;;;;;17.39;80.27;99584.69;10543153;28;20374;-66
2023/10/30 15:29:52;;;;;;;1999.90;999.90;;;;;;;16.97;83.73;99581.06;10543589;28;20052;-65
2023/10/30 15:34:55;;;;;;;1999.90;999.90;;;;;;;18.22;78.28;99572.34;10542676;28;20050;-65
2023/10/30 15:39:57;;;;;;;1999.90;999.90;;;;;;;17.59;82.96;99567.53;10543143;28;20048;-66
2023/10/30 15:45:02;;;;;;;1999.90;999.90;;;;;;;17.86;81.71;99554.16;10542929;28;20097;-66
2023/10/30 15:50:05;;;;;;;1999.90;999.90;;;;;;;18.15;80.49;99545.72;10542754;28;20048;-66
2023/10/30 15:55:08;;;;;;;1999.90;999.90;;;;;;;18.29;80.18;99544.19;10542631;28;20043;-66
2023/10/30 16:00:12;;;;;;;1999.90;999.90;;;;;;;17.96;81.25;99534.47;10542392;28;20075;-66
2023/10/30 16:05:16;;;;;;;1999.90;999.90;;;;;;;18.46;77.65;99527.28;10524090;28;20050;-66
2023/10/30 16:10:19;;;;;;;1999.90;999.90;;;;;;;18.12;79.50;99535.44;10541392;28;20117;-66
2023/10/30 16:15:27;;;;;;;1999.90;999.90;;;;;;;18.30;78.20;99517.53;10542485;28;20052;-66
2023/10/30 16:20:29;;;;;;;1999.90;999.90;;;;;;;18.03;79.70;99510.78;10540874;28;20587;-65
2023/10/30 16:25:33;;;;;;;1999.90;999.90;;;;;;;17.51;82.44;99504.00;10541309;28;20044;-65
2023/10/30 16:30:35;;;;;;;1999.90;999.90;;;;;;;17.92;82.30;99490.81;10540774;28;20419;-66
2023/10/30 16:35:38;;;;;;;1999.90;999.90;;;;;;;17.45;84.06;99500.19;10541621;28;20043;-66
2023/10/30 16:40:40;;;;;;;1999.90;999.90;;;;;;;18.01;80.58;99492.44;10540914;28;20050;-66
2023/10/30 16:45:43;;;;;;;1999.90;999.90;;;;;;;17.93;80.99;99481.84;10540025;28;20127;-65
2023/10/30 16:50:45;;;;;;;1999.90;999.90;;;;;;;17.91;80.58;99480.38;10539959;28;20484;-66
2023/10/30 16:55:49;;;;;;;1999.90;999.90;;;;;;;17.88;81.44;99478.06;10540452;28;20040;-66
2023/10/30 17:00:52;;;;;;;1999.90;999.90;;;;;;;17.57;83.81;99476.06;10522607;28;20060;-66
2023/10/30 17:05:54;;;;;;;1999.90;999.90;;;;;;;17.69;82.57;99472.09;10539811;28;20044;-66
2023/10/30 17:10:58;;;;;;;1999.90;999.90;;;;;;;17.60;83.58;99470.41;10540104;28;20122;-66
2023/10/30 17:16:00;;;;;;;1999.90;999.90;;;;;;;17.51;83.19;99477.53;10522539;28;20101;-66
2023/10/30 17:21:05;;;;;;;1999.90;999.90;;;;;;;18.02;80.74;99474.72;10538906;28;20134;-66
2023/10/30 17:26:08;;;;;;;1999.90;999.90;;;;;;;17.45;83.80;99488.81;10539641;28;20485;-66
2023/10/30 17:31:10;;;;;;;1999.90;999.90;;;;;;;17.99;80.66;99480.38;10521816;28;20048;-66
2023/10/30 17:36:12;;;;;;;1999.90;999.90;;;;;;;17.42;84.00;99481.19;10538898;28;20532;-66
2023/10/30 17:41:15;;;;;;;1999.90;999.90;;;;;;;17.48;85.52;99477.88;10539499;28;20052;-66
2023/10/30 17:46:18;;;;;;;1999.90;999.90;;;;;;;17.49;85.45;99468.13;10538671;28;20535;-66
2023/10/30 17:51:20;;;;;;;1999.90;999.90;;;;;;;16.83;89.92;99478.56;10538637;28;20504;-66
2023/10/30 17:56:32;;;;;;;1999.90;999.90;;;;;;;17.82;85.51;99471.59;10504351;28;20415;-66
2023/10/30 18:01:34;;;;;;;;;;;;;;;17.62;85.54;99484.34;10521789;28;20054;-65
2023/10/30 18:06:36;;;;;;;1999.90;999.90;;;;;;;17.22;87.42;99467.44;10538460;28;20424;-65
2023/10/30 18:11:39;;;;;;;1999.90;999.90;;;;;;;17.48;84.84;99462.00;10539045;28;20507;-66
2023/10/30 18:16:42;;;;;;;1999.90;999.90;;;;;;;17.96;84.82;99454.22;10547082;28;20044;-66
2023/10/30 18:21:45;;;;;;;1999.90;999.90;;;;;;;17.68;84.48;99459.00;10545871;28;20557;-66
2023/10/30 18:26:54;;;;;;;1999.90;999.90;;;;;;;17.81;84.42;99449.56;10546070;28;20048;-66
2023/10/30 18:31:56;;;;;;;1999.90;999.90;;;;;;;17.43;86.37;99440.50;10545373;28;20052;-66
2023/10/30 18:36:59;;;;;;;1999.90;999.90;;;;;;;17.53;86.24;99438.50;10545934;28;20052;-66
2023/10/30 18:42:01;;;;;;;1999.90;999.90;;;;;;;17.83;84.08;99434.34;10545424;28;20411;-65
2023/10/30 18:47:04;;;;;;;1999.90;999.90;;;;;;;17.76;83.80;99424.59;10545245;28;20048;-66
2023/10/30 18:52:09;;;;;;;1999.90;999.90;;;;;;;17.79;84.72;99419.78;10545189;28;20084;-66
2023/10/30 18:57:11;;;;;;;1999.90;999.90;;;;;;;17.83;85.20;99405.22;10544998;28;20040;-66
2023/10/30 19:02:13;;;;;;;1999.90;999.90;;;;;;;17.85;84.41;99396.28;10544104;28;20469;-66
2023/10/30 19:07:16;;;;;;;1999.90;999.90;;;;;;;17.60;86.22;99391.88;10544491;28;20051;-66
2023/10/30 19:12:18;;;;;;;1999.90;999.90;;;;;;;17.86;86.94;99403.25;10543709;28;20485;-66
2023/10/30 19:17:20;;;;;;;1999.90;999.90;;;;;;;17.74;85.25;99390.34;10544144;28;20079;-66
2023/10/30 19:22:23;;;;;;;1999.90;999.90;;;;;;;18.02;84.42;99405.84;10543017;28;20420;-66
2023/10/30 19:27:25;;;;;;;1999.90;999.90;;;;;;;18.12;82.19;99403.00;10543706;28;20044;-66
2023/10/30 19:32:28;;;;;;;1999.90;999.90;;;;;;;17.56;86.17;99392.38;10542907;28;20122;-66
2023/10/30 19:37:32;;;;;;;1999.90;999.90;;;;;;;17.65;87.73;99391.34;10542682;28;20435;-66
2023/10/30 19:42:35;;;;;;;1999.90;999.90;;;;;;;18.03;85.18;99393.47;10543078;28;20048;-66
2023/10/30 19:47:41;;;;;;;1999.90;999.90;;;;;;;17.43;89.16;99387.59;10542543;28;20453;-66
2023/10/30 19:52:46;;;;;;;1999.90;999.90;;;;;;;17.90;87.47;99394.81;10542860;28;20054;-66
2023/10/30 19:57:48;;;;;;;1999.90;999.90;;;;;;;18.07;86.12;99390.31;10542712;28;20043;-66
2023/10/30 20:02:50;;;;;;;1999.90;999.90;;;;;;;17.79;88.73;99392.50;10541710;28;20580;-66
2023/10/30 20:07:53;;;;;;;1999.90;999.90;;;;;;;17.93;85.83;99391.00;10542016;28;20131;-66
2023/10/30 20:12:55;;;;;;;1999.90;999.90;;;;;;;18.39;85.49;99385.84;10507025;28;20507;-66
2023/10/30 20:17:58;;;;;;;1999.90;999.90;;;;;;;18.45;86.42;99381.69;10541668;28;20040;-66
2023/10/30 20:23:00;;;;;;;1999.90;999.90;;;;;;;18.24;85.81;99387.56;10541036;28;20056;-66
2023/10/30 20:28:03;;;;;;;1999.90;999.90;;;;;;;18.38;84.17;99382.38;10540592;28;20566;-66
2023/10/30 20:33:05;;;;;;;1999.90;999.90;;;;;;;18.48;84.10;99373.41;10523200;28;20052;-65
2023/10/30 20:38:08;;;;;;;1999.90;999.90;;;;;;;18.12;86.39;99365.94;10522360;28;20086;-66
2023/10/30 20:43:10;;;;;;;1999.90;999.90;;;;;;;18.18;87.86;99363.44;10540872;28;20051;-66
2023/10/30 20:48:16;;;;;;;1999.90;999.90;;;;;;;18.19;87.53;99358.97;10523153;28;20044;-66
2023/10/30 20:53:18;;;;;;;1999.90;999.90;;;;;;;18.36;85.22;99349.94;10540699;28;20063;-66
2023/10/30 20:58:20;;;;;;;1999.90;999.90;;;;;;;18.59;84.75;99346.47;10522697;28;20048;-65
2023/10/30 21:03:23;;;;;;;1999.90;999.90;;;;;;;18.09;85.46;99345.09;10540267;28;20058;-66
2023/10/30 21:08:26;;;;;;;1999.90;999.90;;;;;;;17.67;89.72;99349.69;10539442;28;20483;-66
2023/10/30 21:13:30;;;;;;;1999.90;999.90;;;;;;;18.36;86.44;99341.16;10540020;28;20172;-66
2023/10/30 21:18:33;;;;;;;1999.90;999.90;;;;;;;17.96;88.86;99330.59;10539337;28;20502;-66
2023/10/30 21:23:35;;;;;;;1999.90;999.90;;;;;;;18.15;87.85;99321.38;10539381;28;20404;-66
2023/10/30 21:28:38;;;;;;;1999.90;999.90;;;;;;;17.75;89.04;99314.41;10539725;28;20050;-66
2023/10/30 21:33:40;;;;;;;1999.90;999.90;;;;;;;17.49;91.15;99315.47;10540311;28;20048;-66
2023/10/30 21:38:42;;;;;;;1999.90;999.90;;;;;;;18.14;87.60;99311.81;10539448;28;20508;-66
2023/10/30 21:43:45;;;;;;;1999.90;999.90;;;;;;;18.01;86.76;99301.75;10539465;28;20082;-66
2023/10/30 21:48:48;;;;;;;1999.90;999.90;;;;;;;18.48;86.68;99289.41;10544820;28;20408;-66
2023/10/30 21:53:52;;;;;;;1999.90;999.90;;;;;;;18.86;82.83;99281.56;10546911;28;20131;-66
2023/10/30 21:58:54;;;;;;;1999.90;999.90;;;;;;;18.68;83.06;99267.75;10547396;28;20579;-66
2023/10/30 22:03:57;;;;;;;1999.90;999.90;;;;;;;18.18;86.28;99270.72;10547131;28;20055;-66
2023/10/30 22:09:00;;;;;;;1999.90;999.90;;;;;;;18.82;83.26;99255.53;10546841;28;20044;-66
2023/10/30 22:14:02;;;;;;;1999.90;999.90;;;;;;;18.40;83.35;99256.84;10546049;28;20516;-66